Terminal Aerodrome Forecast
Issued by NWS

Home | Current Version | Previous Version | Text Only | Print | Product List | Glossary On
Versions: 1 2 3 4 5 6 7 8 9 10 11 12 13 14 15 16 17 18 19
000
FTUS43 KMPX 281121
TAFRWF
TAF
KRWF 281121Z 2812/2912 15012G20KT 5SM BR OVC007
     FM281600 15013KT 6SM BR SCT007 OVC015
     FM282100 17006KT P6SM OVC015
     FM290200 32012G19KT P6SM OVC008
     FM290700 32020G30KT P6SM OVC012=

USA.gov is the U.S. government's official web portal to all federal, state and local government web resources and services.